Carbon Cliff, Illinois
Current Conditions -  °F | °C
As of 2:52 PM on Wednesday 17 Dec 2014 (Local Time) from KMLI Reporting Station
Clear Clear  
Wind Chill: 19°   Ceiling: Unl
Heat Index: 29°   Visibility: 10mi
Dew Point: 15°   Wind: 12mph
Humidity: 56%   Direction: 320°NW
Pressure: 30.27"   Gusts: NA
Location:  41.49°N, 90.39°W
Report Text: KMLI 172052Z 32010KT 10SM CLR M02/M09 A3027 RMK AO2 SLP258 T10171094 55008 $
Loading
Personal Weather Stations






























Interactive Weather Map New forecast layout! Learn more

10-Day Weather Forecast

Advertisements
Track Severe Weather on mobile